sensor_id;sensor_type;location;lat;lon;timestamp;pressure;altitude;pressure_sealevel;temperature;humidity
75136;BME280;63707;52.212;9.540;2022-12-04T00:01:39;100478.97;;;-2.40;98.48
75136;BME280;63707;52.212;9.540;2022-12-04T00:04:05;100471.94;;;-2.41;98.96
75136;BME280;63707;52.212;9.540;2022-12-04T00:06:32;100469.16;;;-2.39;99.26
75136;BME280;63707;52.212;9.540;2022-12-04T00:09:01;100458.81;;;-2.44;98.75
75136;BME280;63707;52.212;9.540;2022-12-04T00:11:28;100462.44;;;-2.45;99.29
75136;BME280;63707;52.212;9.540;2022-12-04T00:13:54;100463.53;;;-2.47;99.08
75136;BME280;63707;52.212;9.540;2022-12-04T00:16:22;100462.34;;;-2.43;98.97
75136;BME280;63707;52.212;9.540;2022-12-04T00:18:52;100461.16;;;-2.39;98.78
75136;BME280;63707;52.212;9.540;2022-12-04T00:21:19;100465.63;;;-2.40;98.46
75136;BME280;63707;52.212;9.540;2022-12-04T00:23:46;100467.69;;;-2.43;98.49
75136;BME280;63707;52.212;9.540;2022-12-04T00:26:14;100460.28;;;-2.40;98.86
75136;BME280;63707;52.212;9.540;2022-12-04T00:28:40;100458.81;;;-2.44;98.68
75136;BME280;63707;52.212;9.540;2022-12-04T00:31:06;100467.97;;;-2.35;99.07
75136;BME280;63707;52.212;9.540;2022-12-04T00:33:33;100463.19;;;-2.43;98.49
75136;BME280;63707;52.212;9.540;2022-12-04T00:36:00;100462.34;;;-2.43;98.53
75136;BME280;63707;52.212;9.540;2022-12-04T00:38:26;100473.34;;;-2.48;98.57
75136;BME280;63707;52.212;9.540;2022-12-04T00:40:54;100465.69;;;-2.53;98.65
75136;BME280;63707;52.212;9.540;2022-12-04T00:43:20;100463.69;;;-2.38;99.18
75136;BME280;63707;52.212;9.540;2022-12-04T00:45:46;100462.84;;;-2.38;98.90
75136;BME280;63707;52.212;9.540;2022-12-04T00:48:11;100447.19;;;-2.43;98.84
75136;BME280;63707;52.212;9.540;2022-12-04T00:50:42;100449.00;;;-2.43;98.96
75136;BME280;63707;52.212;9.540;2022-12-04T00:53:08;100449.00;;;-2.43;99.03
75136;BME280;63707;52.212;9.540;2022-12-04T00:55:36;100453.94;;;-2.50;98.52
75136;BME280;63707;52.212;9.540;2022-12-04T00:58:03;100453.13;;;-2.39;99.03
75136;BME280;63707;52.212;9.540;2022-12-04T01:00:29;100451.63;;;-2.31;99.09
75136;BME280;63707;52.212;9.540;2022-12-04T01:02:55;100444.41;;;-2.41;98.82
75136;BME280;63707;52.212;9.540;2022-12-04T01:05:21;100450.34;;;-2.38;98.63
75136;BME280;63707;52.212;9.540;2022-12-04T01:07:53;100445.25;;;-2.41;98.48
75136;BME280;63707;52.212;9.540;2022-12-04T01:10:20;100454.44;;;-2.45;98.42
75136;BME280;63707;52.212;9.540;2022-12-04T01:12:50;100455.91;;;-2.41;98.46
75136;BME280;63707;52.212;9.540;2022-12-04T01:15:18;100446.94;;;-2.40;98.54
75136;BME280;63707;52.212;9.540;2022-12-04T01:17:44;100447.59;;;-2.36;99.06
75136;BME280;63707;52.212;9.540;2022-12-04T01:20:11;100442.81;;;-2.44;99.31
75136;BME280;63707;52.212;9.540;2022-12-04T01:22:36;100444.00;;;-2.48;98.99
75136;BME280;63707;52.212;9.540;2022-12-04T01:25:02;100447.53;;;-2.47;99.36
75136;BME280;63707;52.212;9.540;2022-12-04T01:27:27;100443.88;;;-2.46;99.79
75136;BME280;63707;52.212;9.540;2022-12-04T01:29:53;100438.09;;;-2.40;100.00
75136;BME280;63707;52.212;9.540;2022-12-04T01:32:20;100432.13;;;-2.44;100.00
75136;BME280;63707;52.212;9.540;2022-12-04T01:34:45;100433.44;;;-2.49;100.00
75136;BME280;63707;52.212;9.540;2022-12-04T01:37:11;100434.81;;;-2.44;100.00
75136;BME280;63707;52.212;9.540;2022-12-04T01:39:37;100429.47;;;-2.44;100.00
75136;BME280;63707;52.212;9.540;2022-12-04T01:42:03;100433.09;;;-2.45;100.00
75136;BME280;63707;52.212;9.540;2022-12-04T01:44:29;100430.56;;;-2.46;100.00
75136;BME280;63707;52.212;9.540;2022-12-04T01:46:59;100428.50;;;-2.43;100.00
75136;BME280;63707;52.212;9.540;2022-12-04T01:49:30;100431.50;;;-2.47;100.00
75136;BME280;63707;52.212;9.540;2022-12-04T01:52:02;100423.41;;;-2.46;100.00
75136;BME280;63707;52.212;9.540;2022-12-04T01:54:32;100420.28;;;-2.40;100.00
75136;BME280;63707;52.212;9.540;2022-12-04T01:57:00;100423.41;;;-2.46;100.00
75136;BME280;63707;52.212;9.540;2022-12-04T01:59:31;100425.84;;;-2.43;100.00
75136;BME280;63707;52.212;9.540;2022-12-04T02:02:01;100417.09;;;-2.45;100.00
75136;BME280;63707;52.212;9.540;2022-12-04T02:04:29;100421.59;;;-2.45;100.00
75136;BME280;63707;52.212;9.540;2022-12-04T02:06:55;100412.25;;;-2.40;100.00
75136;BME280;63707;52.212;9.540;2022-12-04T02:09:21;100419.88;;;-2.46;100.00
75136;BME280;63707;52.212;9.540;2022-12-04T02:11:52;100419.31;;;-2.39;100.00
75136;BME280;63707;52.212;9.540;2022-12-04T02:14:30;100418.44;;;-2.39;100.00
75136;BME280;63707;52.212;9.540;2022-12-04T02:17:07;100428.94;;;-2.36;100.00
75136;BME280;63707;52.212;9.540;2022-12-04T02:19:51;100430.81;;;-2.38;100.00
75136;BME280;63707;52.212;9.540;2022-12-04T02:22:29;100426.06;;;-2.46;100.00
75136;BME280;63707;52.212;9.540;2022-12-04T02:25:07;100426.69;;;-2.42;100.00
75136;BME280;63707;52.212;9.540;2022-12-04T02:27:56;100414.69;;;-2.37;100.00
75136;BME280;63707;52.212;9.540;2022-12-04T02:30:24;100413.34;;;-2.42;100.00
75136;BME280;63707;52.212;9.540;2022-12-04T02:32:59;100417.72;;;-2.41;100.00
75136;BME280;63707;52.212;9.540;2022-12-04T02:35:29;100416.00;;;-2.42;100.00
75136;BME280;63707;52.212;9.540;2022-12-04T02:37:58;100413.34;;;-2.42;100.00
75136;BME280;63707;52.212;9.540;2022-12-04T02:40:28;100416.97;;;-2.43;100.00
75136;BME280;63707;52.212;9.540;2022-12-04T02:42:59;100415.03;;;-2.41;100.00
75136;BME280;63707;52.212;9.540;2022-12-04T02:45:29;100413.75;;;-2.36;100.00
75136;BME280;63707;52.212;9.540;2022-12-04T02:47:58;100411.84;;;-2.34;100.00
75136;BME280;63707;52.212;9.540;2022-12-04T02:50:27;100405.75;;;-2.36;100.00
75136;BME280;63707;52.212;9.540;2022-12-04T02:52:57;100408.19;;;-2.33;100.00
75136;BME280;63707;52.212;9.540;2022-12-04T02:55:28;100406.94;;;-2.40;100.00
75136;BME280;63707;52.212;9.540;2022-12-04T02:58:01;100406.31;;;-2.43;100.00
75136;BME280;63707;52.212;9.540;2022-12-04T03:00:31;100406.69;;;-2.37;100.00
75136;BME280;63707;52.212;9.540;2022-12-04T03:02:59;100405.00;;;-2.38;100.00
75136;BME280;63707;52.212;9.540;2022-12-04T03:05:32;100405.09;;;-2.39;100.00
75136;BME280;63707;52.212;9.540;2022-12-04T03:08:02;100402.97;;;-2.34;100.00
75136;BME280;63707;52.212;9.540;2022-12-04T03:10:33;100401.16;;;-2.34;100.00
75136;BME280;63707;52.212;9.540;2022-12-04T03:13:06;100402.84;;;-2.33;100.00
75136;BME280;63707;52.212;9.540;2022-12-04T03:15:36;100400.81;;;-2.29;100.00
75136;BME280;63707;52.212;9.540;2022-12-04T03:18:07;100408.44;;;-2.36;100.00
75136;BME280;63707;52.212;9.540;2022-12-04T03:20:37;100403.25;;;-2.26;100.00
75136;BME280;63707;52.212;9.540;2022-12-04T03:23:07;100394.72;;;-2.31;100.00
75136;BME280;63707;52.212;9.540;2022-12-04T03:25:37;100397.66;;;-2.23;100.00
75136;BME280;63707;52.212;9.540;2022-12-04T03:28:15;100393.66;;;-2.29;100.00
75136;BME280;63707;52.212;9.540;2022-12-04T03:30:52;100398.13;;;-2.29;100.00
75136;BME280;63707;52.212;9.540;2022-12-04T03:33:26;100393.31;;;-2.24;100.00
75136;BME280;63707;52.212;9.540;2022-12-04T03:35:59;100394.50;;;-2.28;100.00
75136;BME280;63707;52.212;9.540;2022-12-04T03:38:28;100393.19;;;-2.23;100.00
75136;BME280;63707;52.212;9.540;2022-12-04T03:41:02;100389.28;;;-2.30;100.00
75136;BME280;63707;52.212;9.540;2022-12-04T03:43:33;100386.03;;;-2.22;100.00
75136;BME280;63707;52.212;9.540;2022-12-04T03:46:05;100391.09;;;-2.30;100.00
75136;BME280;63707;52.212;9.540;2022-12-04T03:48:40;100388.81;;;-2.24;100.00
75136;BME280;63707;52.212;9.540;2022-12-04T03:51:12;100388.94;;;-2.25;100.00
75136;BME280;63707;52.212;9.540;2022-12-04T03:53:44;100399.72;;;-2.27;100.00
75136;BME280;63707;52.212;9.540;2022-12-04T03:56:14;100398.03;;;-2.28;100.00
75136;BME280;63707;52.212;9.540;2022-12-04T03:58:46;100395.97;;;-2.24;100.00
75136;BME280;63707;52.212;9.540;2022-12-04T04:01:14;100405.19;;;-2.28;100.00
75136;BME280;63707;52.212;9.540;2022-12-04T04:03:45;100404.72;;;-2.22;100.00
75136;BME280;63707;52.212;9.540;2022-12-04T04:06:15;100400.34;;;-2.23;100.00
75136;BME280;63707;52.212;9.540;2022-12-04T04:08:45;100399.59;;;-2.25;100.00
75136;BME280;63707;52.212;9.540;2022-12-04T04:11:16;100394.88;;;-2.22;100.00
75136;BME280;63707;52.212;9.540;2022-12-04T04:13:47;100398.28;;;-2.19;100.00
75136;BME280;63707;52.212;9.540;2022-12-04T04:16:35;100405.72;;;-2.12;100.00
75136;BME280;63707;52.212;9.540;2022-12-04T04:19:24;100408.13;;;-2.20;100.00
75136;BME280;63707;52.212;9.540;2022-12-04T04:22:12;100408.97;;;-2.19;100.00
75136;BME280;63707;52.212;9.540;2022-12-04T04:25:02;100412.72;;;-2.22;100.00
75136;BME280;63707;52.212;9.540;2022-12-04T04:27:28;100407.16;;;-2.19;100.00
75136;BME280;63707;52.212;9.540;2022-12-04T04:29:57;100402.78;;;-2.20;100.00
75136;BME280;63707;52.212;9.540;2022-12-04T04:32:31;100406.28;;;-2.19;100.00
75136;BME280;63707;52.212;9.540;2022-12-04T04:35:05;100398.31;;;-2.08;100.00
75136;BME280;63707;52.212;9.540;2022-12-04T04:37:39;100393.09;;;-2.10;100.00
75136;BME280;63707;52.212;9.540;2022-12-04T04:40:12;100397.69;;;-2.12;100.00
75136;BME280;63707;52.212;9.540;2022-12-04T04:42:46;100399.41;;;-2.11;100.00
75136;BME280;63707;52.212;9.540;2022-12-04T04:45:22;100399.53;;;-2.12;100.00
75136;BME280;63707;52.212;9.540;2022-12-04T04:47:51;100400.13;;;-2.09;100.00
75136;BME280;63707;52.212;9.540;2022-12-04T04:50:19;100406.44;;;-2.10;100.00
75136;BME280;63707;52.212;9.540;2022-12-04T04:52:47;100399.28;;;-2.09;100.00
75136;BME280;63707;52.212;9.540;2022-12-04T04:55:15;100400.63;;;-2.04;100.00
75136;BME280;63707;52.212;9.540;2022-12-04T04:57:42;100400.25;;;-2.10;100.00
75136;BME280;63707;52.212;9.540;2022-12-04T05:00:10;100403.78;;;-2.10;100.00
75136;BME280;63707;52.212;9.540;2022-12-04T05:02:37;100409.97;;;-2.09;100.00
75136;BME280;63707;52.212;9.540;2022-12-04T05:05:03;100395.88;;;-2.11;100.00
75136;BME280;63707;52.212;9.540;2022-12-04T05:07:28;100395.41;;;-2.05;100.00
75136;BME280;63707;52.212;9.540;2022-12-04T05:09:54;100396.50;;;-2.08;100.00
75136;BME280;63707;52.212;9.540;2022-12-04T05:12:23;100396.03;;;-2.02;100.00
75136;BME280;63707;52.212;9.540;2022-12-04T05:14:48;100405.84;;;-2.02;100.00
75136;BME280;63707;52.212;9.540;2022-12-04T05:17:14;100407.78;;;-2.04;100.00
75136;BME280;63707;52.212;9.540;2022-12-04T05:19:43;100413.13;;;-2.04;100.00
75136;BME280;63707;52.212;9.540;2022-12-04T05:22:17;100417.03;;;-1.97;100.00
75136;BME280;63707;52.212;9.540;2022-12-04T05:24:43;100408.16;;;-1.98;100.00
75136;BME280;63707;52.212;9.540;2022-12-04T05:27:08;100418.34;;;-2.03;100.00
75136;BME280;63707;52.212;9.540;2022-12-04T05:29:34;100424.91;;;-1.96;100.00
75136;BME280;63707;52.212;9.540;2022-12-04T05:32:00;100420.44;;;-1.95;100.00
75136;BME280;63707;52.212;9.540;2022-12-04T05:34:25;100421.03;;;-1.92;100.00
75136;BME280;63707;52.212;9.540;2022-12-04T05:36:52;100409.25;;;-2.00;100.00
75136;BME280;63707;52.212;9.540;2022-12-04T05:39:18;100416.06;;;-1.96;100.00
75136;BME280;63707;52.212;9.540;2022-12-04T05:41:43;100409.50;;;-1.92;100.00
75136;BME280;63707;52.212;9.540;2022-12-04T05:44:09;100418.97;;;-1.99;100.00
75136;BME280;63707;52.212;9.540;2022-12-04T05:46:34;100404.06;;;-1.91;100.00
75136;BME280;63707;52.212;9.540;2022-12-04T05:49:00;100412.19;;;-1.92;100.00
75136;BME280;63707;52.212;9.540;2022-12-04T05:51:29;100406.72;;;-1.91;100.00
75136;BME280;63707;52.212;9.540;2022-12-04T05:53:57;100408.22;;;-1.86;100.00
75136;BME280;63707;52.212;9.540;2022-12-04T05:56:22;100414.16;;;-1.83;100.00
75136;BME280;63707;52.212;9.540;2022-12-04T05:58:48;100415.50;;;-1.88;100.00
75136;BME280;63707;52.212;9.540;2022-12-04T06:01:15;100409.06;;;-1.86;100.00
75136;BME280;63707;52.212;9.540;2022-12-04T06:03:41;100405.53;;;-1.86;100.00
75136;BME280;63707;52.212;9.540;2022-12-04T06:06:11;100409.19;;;-1.87;100.00
75136;BME280;63707;52.212;9.540;2022-12-04T06:08:37;100405.66;;;-1.88;100.00
75136;BME280;63707;52.212;9.540;2022-12-04T06:11:10;100408.53;;;-1.91;100.00
75136;BME280;63707;52.212;9.540;2022-12-04T06:13:36;100412.81;;;-1.88;100.00
75136;BME280;63707;52.212;9.540;2022-12-04T06:16:01;100400.53;;;-1.91;100.00
75136;BME280;63707;52.212;9.540;2022-12-04T06:18:27;100416.22;;;-1.86;100.00
75136;BME280;63707;52.212;9.540;2022-12-04T06:20:56;100407.00;;;-1.82;100.00
75136;BME280;63707;52.212;9.540;2022-12-04T06:23:23;100419.38;;;-1.81;100.00
75136;BME280;63707;52.212;9.540;2022-12-04T06:25:49;100413.81;;;-1.78;100.00
75136;BME280;63707;52.212;9.540;2022-12-04T06:28:16;100416.00;;;-1.83;100.00
75136;BME280;63707;52.212;9.540;2022-12-04T06:30:41;100419.38;;;-1.81;100.00
75136;BME280;63707;52.212;9.540;2022-12-04T06:33:07;100419.50;;;-1.83;100.00
75136;BME280;63707;52.212;9.540;2022-12-04T06:35:32;100418.53;;;-1.82;100.00
75136;BME280;63707;52.212;9.540;2022-12-04T06:37:58;100430.81;;;-1.79;100.00
75136;BME280;63707;52.212;9.540;2022-12-04T06:40:23;100426.78;;;-1.85;100.00
75136;BME280;63707;52.212;9.540;2022-12-04T06:42:49;100416.59;;;-1.80;100.00
75136;BME280;63707;52.212;9.540;2022-12-04T06:45:16;100428.72;;;-1.87;100.00
75136;BME280;63707;52.212;9.540;2022-12-04T06:47:43;100419.88;;;-1.87;100.00
75136;BME280;63707;52.212;9.540;2022-12-04T06:50:09;100418.19;;;-1.77;100.00
75136;BME280;63707;52.212;9.540;2022-12-04T06:52:35;100412.09;;;-1.79;100.00
75136;BME280;63707;52.212;9.540;2022-12-04T06:55:00;100424.50;;;-1.78;100.00
75136;BME280;63707;52.212;9.540;2022-12-04T06:57:26;100423.78;;;-1.69;100.00
75136;BME280;63707;52.212;9.540;2022-12-04T06:59:52;100423.41;;;-1.76;100.00
75136;BME280;63707;52.212;9.540;2022-12-04T07:02:19;100423.28;;;-1.63;100.00
75136;BME280;63707;52.212;9.540;2022-12-04T07:04:44;100420.59;;;-1.74;100.00
75136;BME280;63707;52.212;9.540;2022-12-04T07:07:10;100431.91;;;-1.71;100.00
75136;BME280;63707;52.212;9.540;2022-12-04T07:09:36;100431.91;;;-1.71;100.00
75136;BME280;63707;52.212;9.540;2022-12-04T07:12:02;100433.34;;;-1.78;100.00
75136;BME280;63707;52.212;9.540;2022-12-04T07:14:27;100435.06;;;-1.77;100.00
75136;BME280;63707;52.212;9.540;2022-12-04T07:16:53;100429.97;;;-1.69;100.00
75136;BME280;63707;52.212;9.540;2022-12-04T07:19:20;100428.88;;;-1.66;100.00
75136;BME280;63707;52.212;9.540;2022-12-04T07:21:46;100432.03;;;-1.72;100.00
75136;BME280;63707;52.212;9.540;2022-12-04T07:24:14;100424.97;;;-1.73;100.00
75136;BME280;63707;52.212;9.540;2022-12-04T07:26:40;100422.06;;;-1.70;100.00
75136;BME280;63707;52.212;9.540;2022-12-04T07:29:05;100425.59;;;-1.70;100.00
75136;BME280;63707;52.212;9.540;2022-12-04T07:31:31;100428.50;;;-1.73;100.00
75136;BME280;63707;52.212;9.540;2022-12-04T07:33:57;100429.97;;;-1.69;100.00
75136;BME280;63707;52.212;9.540;2022-12-04T07:36:26;100433.00;;;-1.73;100.00
75136;BME280;63707;52.212;9.540;2022-12-04T07:38:53;100418.44;;;-1.69;100.00
75136;BME280;63707;52.212;9.540;2022-12-04T07:41:19;100425.09;;;-1.75;100.00
75136;BME280;63707;52.212;9.540;2022-12-04T07:43:45;100425.47;;;-1.68;100.00
75136;BME280;63707;52.212;9.540;2022-12-04T07:46:13;100431.28;;;-1.74;100.00
75136;BME280;63707;52.212;9.540;2022-12-04T07:48:39;100421.59;;;-1.75;100.00
75136;BME280;63707;52.212;9.540;2022-12-04T07:51:06;100424.25;;;-1.75;100.00
75136;BME280;63707;52.212;9.540;2022-12-04T07:53:34;100426.69;;;-1.72;100.00
75136;BME280;63707;52.212;9.540;2022-12-04T07:56:03;100431.91;;;-1.71;100.00
75136;BME280;63707;52.212;9.540;2022-12-04T07:58:29;100429.34;;;-1.72;100.00
75136;BME280;63707;52.212;9.540;2022-12-04T08:01:04;100428.38;;;-1.71;100.00
75136;BME280;63707;52.212;9.540;2022-12-04T08:03:29;100431.53;;;-1.66;100.00
75136;BME280;63707;52.212;9.540;2022-12-04T08:05:58;100431.44;;;-1.65;100.00
75136;BME280;63707;52.212;9.540;2022-12-04T08:08:24;100432.63;;;-1.69;100.00
75136;BME280;63707;52.212;9.540;2022-12-04T08:10:51;100433.59;;;-1.70;100.00
75136;BME280;63707;52.212;9.540;2022-12-04T08:13:16;100427.06;;;-1.66;100.00
75136;BME280;63707;52.212;9.540;2022-12-04T08:15:42;100423.91;;;-1.71;100.00
75136;BME280;63707;52.212;9.540;2022-12-04T08:18:07;100414.31;;;-1.73;100.00
75136;BME280;63707;52.212;9.540;2022-12-04T08:20:33;100426.31;;;-1.68;100.00
75136;BME280;63707;52.212;9.540;2022-12-04T08:22:58;100424.63;;;-1.69;100.00
75136;BME280;63707;52.212;9.540;2022-12-04T08:25:24;100430.69;;;-1.67;100.00
75136;BME280;63707;52.212;9.540;2022-12-04T08:27:51;100434.47;;;-1.69;100.00
75136;BME280;63707;52.212;9.540;2022-12-04T08:30:16;100435.06;;;-1.66;100.00
75136;BME280;63707;52.212;9.540;2022-12-04T08:32:42;100428.88;;;-1.66;100.00
75136;BME280;63707;52.212;9.540;2022-12-04T08:35:08;100434.34;;;-1.68;100.00
75136;BME280;63707;52.212;9.540;2022-12-04T08:37:33;100438.94;;;-1.70;100.00
75136;BME280;63707;52.212;9.540;2022-12-04T08:39:59;100449.03;;;-1.73;100.00
75136;BME280;63707;52.212;9.540;2022-12-04T08:42:24;100435.53;;;-1.72;100.00
75136;BME280;63707;52.212;9.540;2022-12-04T08:44:51;100435.81;;;-1.64;100.00
75136;BME280;63707;52.212;9.540;2022-12-04T08:47:17;100436.28;;;-1.70;100.00
75136;BME280;63707;52.212;9.540;2022-12-04T08:49:42;100432.25;;;-1.75;100.00
75136;BME280;63707;52.212;9.540;2022-12-04T08:52:08;100428.50;;;-1.73;100.00
75136;BME280;63707;52.212;9.540;2022-12-04T08:54:33;100431.44;;;-1.65;100.00
75136;BME280;63707;52.212;9.540;2022-12-04T08:56:59;100433.13;;;-1.64;100.00
75136;BME280;63707;52.212;9.540;2022-12-04T08:59:24;100431.19;;;-1.62;100.00
75136;BME280;63707;52.212;9.540;2022-12-04T09:01:52;100428.75;;;-1.65;100.00
75136;BME280;63707;52.212;9.540;2022-12-04T09:04:18;100430.69;;;-1.67;100.00
75136;BME280;63707;52.212;9.540;2022-12-04T09:06:43;100434.09;;;-1.65;100.00
75136;BME280;63707;52.212;9.540;2022-12-04T09:09:09;100437.38;;;-1.72;100.00
75136;BME280;63707;52.212;9.540;2022-12-04T09:11:34;100431.19;;;-1.73;100.00
75136;BME280;63707;52.212;9.540;2022-12-04T09:14:03;100429.13;;;-1.69;100.00
75136;BME280;63707;52.212;9.540;2022-12-04T09:16:29;100433.97;;;-1.63;100.00
75136;BME280;63707;52.212;9.540;2022-12-04T09:18:56;100435.19;;;-1.67;100.00
75136;BME280;63707;52.212;9.540;2022-12-04T09:21:22;100440.41;;;-1.66;100.00
75136;BME280;63707;52.212;9.540;2022-12-04T09:23:49;100434.81;;;-1.63;100.00
75136;BME280;63707;52.212;9.540;2022-12-04T09:26:18;100436.66;;;-1.63;100.00
75136;BME280;63707;52.212;9.540;2022-12-04T09:28:44;100430.94;;;-1.59;100.00
75136;BME280;63707;52.212;9.540;2022-12-04T09:31:11;100438.00;;;-1.58;100.00
75136;BME280;63707;52.212;9.540;2022-12-04T09:33:36;100440.06;;;-1.61;100.00
75136;BME280;63707;52.212;9.540;2022-12-04T09:36:04;100439.31;;;-1.63;100.00
75136;BME280;63707;52.212;9.540;2022-12-04T09:38:30;100438.47;;;-1.64;100.00
75136;BME280;63707;52.212;9.540;2022-12-04T09:41:03;100435.56;;;-1.61;100.00
75136;BME280;63707;52.212;9.540;2022-12-04T09:43:41;100438.47;;;-1.64;100.00
75136;BME280;63707;52.212;9.540;2022-12-04T09:46:11;100438.34;;;-1.62;100.00
75136;BME280;63707;52.212;9.540;2022-12-04T09:48:41;100431.66;;;-1.68;100.00
75136;BME280;63707;52.212;9.540;2022-12-04T09:51:10;100431.69;;;-1.56;100.00
75136;BME280;63707;52.212;9.540;2022-12-04T09:53:46;100433.63;;;-1.59;100.00
75136;BME280;63707;52.212;9.540;2022-12-04T09:56:15;100434.47;;;-1.58;100.00
75136;BME280;63707;52.212;9.540;2022-12-04T09:58:46;100421.34;;;-1.61;100.00
75136;BME280;63707;52.212;9.540;2022-12-04T10:01:19;100421.09;;;-1.58;100.00
75136;BME280;63707;52.212;9.540;2022-12-04T10:03:46;100424.75;;;-1.59;100.00
75136;BME280;63707;52.212;9.540;2022-12-04T10:06:17;100424.03;;;-1.50;100.00
75136;BME280;63707;52.212;9.540;2022-12-04T10:08:45;100425.47;;;-1.57;100.00
75136;BME280;63707;52.212;9.540;2022-12-04T10:11:16;100418.56;;;-1.60;100.00
75136;BME280;63707;52.212;9.540;2022-12-04T10:13:58;100414.19;;;-1.49;100.00
75136;BME280;63707;52.212;9.540;2022-12-04T10:16:34;100410.06;;;-1.53;100.00
75136;BME280;63707;52.212;9.540;2022-12-04T10:19:09;100409.56;;;-1.47;100.00
75136;BME280;63707;52.212;9.540;2022-12-04T10:21:48;100412.84;;;-1.44;100.00
75136;BME280;63707;52.212;9.540;2022-12-04T10:24:28;100414.06;;;-1.48;100.00
75136;BME280;63707;52.212;9.540;2022-12-04T10:27:00;100414.78;;;-1.46;100.00
75136;BME280;63707;52.212;9.540;2022-12-04T10:29:31;100420.88;;;-1.55;100.00
75136;BME280;63707;52.212;9.540;2022-12-04T10:32:13;100409.69;;;-1.49;100.00
75136;BME280;63707;52.212;9.540;2022-12-04T10:34:41;100408.59;;;-1.46;100.00
75136;BME280;63707;52.212;9.540;2022-12-04T10:37:12;100410.19;;;-1.44;100.00
75136;BME280;63707;52.212;9.540;2022-12-04T10:39:40;100404.34;;;-1.49;100.00
75136;BME280;63707;52.212;9.540;2022-12-04T10:42:15;100407.03;;;-1.49;100.00
75136;BME280;63707;52.212;9.540;2022-12-04T10:44:44;100412.84;;;-1.44;100.00
75136;BME280;63707;52.212;9.540;2022-12-04T10:47:11;100411.63;;;-1.51;100.00
75136;BME280;63707;52.212;9.540;2022-12-04T10:49:38;100415.41;;;-1.53;100.00
75136;BME280;63707;52.212;9.540;2022-12-04T10:52:04;100411.75;;;-1.52;100.00
75136;BME280;63707;52.212;9.540;2022-12-04T10:54:33;100407.06;;;-1.38;100.00
75136;BME280;63707;52.212;9.540;2022-12-04T10:57:02;100408.16;;;-1.40;100.00
75136;BME280;63707;52.212;9.540;2022-12-04T10:59:28;100413.34;;;-1.50;100.00
75136;BME280;63707;52.212;9.540;2022-12-04T11:01:59;100401.69;;;-1.49;100.00
75136;BME280;63707;52.212;9.540;2022-12-04T11:04:26;100413.94;;;-1.46;100.00
75136;BME280;63707;52.212;9.540;2022-12-04T11:07:01;100401.72;;;-1.38;100.00
75136;BME280;63707;52.212;9.540;2022-12-04T11:09:27;100392.13;;;-1.40;100.00
75136;BME280;63707;52.212;9.540;2022-12-04T11:12:04;100384.56;;;-1.46;100.00
75136;BME280;63707;52.212;9.540;2022-12-04T11:14:30;100380.31;;;-1.49;100.00
75136;BME280;63707;52.212;9.540;2022-12-04T11:17:02;100376.94;;;-1.40;100.00
75136;BME280;63707;52.212;9.540;2022-12-04T11:19:30;100370.97;;;-1.32;100.00
75136;BME280;63707;52.212;9.540;2022-12-04T11:21:58;100367.44;;;-1.33;100.00
75136;BME280;63707;52.212;9.540;2022-12-04T11:24:28;100374.00;;;-1.37;100.00
75136;BME280;63707;52.212;9.540;2022-12-04T11:26:56;100368.19;;;-1.42;100.00
75136;BME280;63707;52.212;9.540;2022-12-04T11:29:29;100368.41;;;-1.45;100.00
75136;BME280;63707;52.212;9.540;2022-12-04T11:31:55;100362.84;;;-1.42;100.00
75136;BME280;63707;52.212;9.540;2022-12-04T11:34:24;100368.53;;;-1.35;100.00
75136;BME280;63707;52.212;9.540;2022-12-04T11:36:54;100377.16;;;-1.32;100.00
75136;BME280;63707;52.212;9.540;2022-12-04T11:39:28;100374.72;;;-1.35;100.00
75136;BME280;63707;52.212;9.540;2022-12-04T11:42:04;100369.75;;;-1.28;100.00
75136;BME280;63707;52.212;9.540;2022-12-04T11:44:32;100368.53;;;-1.35;100.00
75136;BME280;63707;52.212;9.540;2022-12-04T11:47:00;100371.69;;;-1.41;100.00
75136;BME280;63707;52.212;9.540;2022-12-04T11:49:28;100372.44;;;-1.39;100.00
75136;BME280;63707;52.212;9.540;2022-12-04T11:52:07;100373.03;;;-1.36;100.00
75136;BME280;63707;52.212;9.540;2022-12-04T11:54:43;100376.56;;;-1.35;100.00
75136;BME280;63707;52.212;9.540;2022-12-04T11:57:23;100375.22;;;-1.30;100.00
75136;BME280;63707;52.212;9.540;2022-12-04T12:00:01;100365.25;;;-1.39;100.00
75136;BME280;63707;52.212;9.540;2022-12-04T12:02:36;100367.69;;;-1.36;100.00
75136;BME280;63707;52.212;9.540;2022-12-04T12:08:18;100375.84;;;-1.37;100.00
75136;BME280;63707;52.212;9.540;2022-12-04T12:10:52;100374.13;;;-1.27;100.00
75136;BME280;63707;52.212;9.540;2022-12-04T12:13:33;100372.03;;;-1.23;100.00
75136;BME280;63707;52.212;9.540;2022-12-04T12:16:08;100367.91;;;-1.28;100.00
75136;BME280;63707;52.212;9.540;2022-12-04T12:18:48;100374.13;;;-1.38;100.00
75136;BME280;63707;52.212;9.540;2022-12-04T12:21:23;100380.09;;;-1.35;100.00
75136;BME280;63707;52.212;9.540;2022-12-04T12:24:04;100367.31;;;-1.31;100.00
75136;BME280;63707;52.212;9.540;2022-12-04T12:26:42;100369.97;;;-1.42;100.00
75136;BME280;63707;52.212;9.540;2022-12-04T12:29:19;100364.91;;;-1.34;100.00
75136;BME280;63707;52.212;9.540;2022-12-04T12:32:06;100365.88;;;-1.35;100.00
75136;BME280;63707;52.212;9.540;2022-12-04T12:34:36;100355.78;;;-1.32;100.00
75136;BME280;63707;52.212;9.540;2022-12-04T12:37:09;100346.91;;;-1.32;100.00
75136;BME280;63707;52.212;9.540;2022-12-04T12:39:38;100338.50;;;-1.28;100.00
75136;BME280;63707;52.212;9.540;2022-12-04T12:42:08;100338.88;;;-1.32;100.00
75136;BME280;63707;52.212;9.540;2022-12-04T12:44:42;100337.31;;;-1.35;100.00
75136;BME280;63707;52.212;9.540;2022-12-04T12:47:16;100336.09;;;-1.31;100.00
75136;BME280;63707;52.212;9.540;2022-12-04T12:49:47;100339.63;;;-1.30;100.00
75136;BME280;63707;52.212;9.540;2022-12-04T12:52:19;100339.88;;;-1.33;100.00
75136;BME280;63707;52.212;9.540;2022-12-04T12:54:54;100336.22;;;-1.32;100.00